sensor_id;sensor_type;location;lat;lon;timestamp;temperature;humidity
16313;DHT22;8265;52.622;13.296;2023-08-20T00:01:26;22.10;86.90
16313;DHT22;8265;52.622;13.296;2023-08-20T00:06:47;22.10;86.90
16313;DHT22;8265;52.622;13.296;2023-08-20T00:12:08;22.00;86.80
16313;DHT22;8265;52.622;13.296;2023-08-20T00:17:29;21.90;86.40
16313;DHT22;8265;52.622;13.296;2023-08-20T00:22:50;22.00;85.50
16313;DHT22;8265;52.622;13.296;2023-08-20T00:28:11;21.90;86.60
16313;DHT22;8265;52.622;13.296;2023-08-20T00:33:32;21.90;86.40
16313;DHT22;8265;52.622;13.296;2023-08-20T00:38:53;21.70;87.10
16313;DHT22;8265;52.622;13.296;2023-08-20T00:44:14;21.70;87.30
16313;DHT22;8265;52.622;13.296;2023-08-20T00:49:35;21.70;85.40
16313;DHT22;8265;52.622;13.296;2023-08-20T00:54:56;21.70;85.70
16313;DHT22;8265;52.622;13.296;2023-08-20T01:00:17;21.90;84.70
16313;DHT22;8265;52.622;13.296;2023-08-20T01:05:39;22.00;84.30
16313;DHT22;8265;52.622;13.296;2023-08-20T01:11:01;22.10;83.90
16313;DHT22;8265;52.622;13.296;2023-08-20T01:16:20;22.30;84.10
16313;DHT22;8265;52.622;13.296;2023-08-20T01:32:23;22.50;85.20
16313;DHT22;8265;52.622;13.296;2023-08-20T01:37:44;22.40;85.40
16313;DHT22;8265;52.622;13.296;2023-08-20T01:43:05;22.50;85.40
16313;DHT22;8265;52.622;13.296;2023-08-20T01:48:26;22.60;84.70
16313;DHT22;8265;52.622;13.296;2023-08-20T01:53:47;22.50;85.20
16313;DHT22;8265;52.622;13.296;2023-08-20T01:59:08;22.50;85.30
16313;DHT22;8265;52.622;13.296;2023-08-20T02:04:29;22.50;85.80
16313;DHT22;8265;52.622;13.296;2023-08-20T02:09:50;22.30;86.30
16313;DHT22;8265;52.622;13.296;2023-08-20T02:15:11;22.30;86.40
16313;DHT22;8265;52.622;13.296;2023-08-20T02:20:32;22.30;86.20
16313;DHT22;8265;52.622;13.296;2023-08-20T02:25:53;22.30;86.60
16313;DHT22;8265;52.622;13.296;2023-08-20T02:31:14;22.20;87.00
16313;DHT22;8265;52.622;13.296;2023-08-20T02:36:35;22.20;87.20
16313;DHT22;8265;52.622;13.296;2023-08-20T02:41:56;22.10;87.60
16313;DHT22;8265;52.622;13.296;2023-08-20T02:47:17;22.00;88.00
16313;DHT22;8265;52.622;13.296;2023-08-20T02:52:38;22.00;88.30
16313;DHT22;8265;52.622;13.296;2023-08-20T02:57:59;22.00;88.50
16313;DHT22;8265;52.622;13.296;2023-08-20T03:03:20;21.90;88.60
16313;DHT22;8265;52.622;13.296;2023-08-20T03:08:41;21.80;88.70
16313;DHT22;8265;52.622;13.296;2023-08-20T03:14:02;21.90;88.60
16313;DHT22;8265;52.622;13.296;2023-08-20T03:19:23;21.70;88.90
16313;DHT22;8265;52.622;13.296;2023-08-20T03:24:44;21.70;89.30
16313;DHT22;8265;52.622;13.296;2023-08-20T03:30:05;21.50;89.70
16313;DHT22;8265;52.622;13.296;2023-08-20T03:35:26;21.50;89.70
16313;DHT22;8265;52.622;13.296;2023-08-20T03:40:47;21.50;89.70
16313;DHT22;8265;52.622;13.296;2023-08-20T03:46:08;21.50;90.10
16313;DHT22;8265;52.622;13.296;2023-08-20T03:51:29;21.30;90.70
16313;DHT22;8265;52.622;13.296;2023-08-20T03:56:50;21.10;91.30
16313;DHT22;8265;52.622;13.296;2023-08-20T04:02:11;21.20;91.30
16313;DHT22;8265;52.622;13.296;2023-08-20T04:07:32;21.20;91.40
16313;DHT22;8265;52.622;13.296;2023-08-20T04:12:53;21.20;91.20
16313;DHT22;8265;52.622;13.296;2023-08-20T04:18:14;21.10;91.60
16313;DHT22;8265;52.622;13.296;2023-08-20T04:23:35;21.00;92.30
16313;DHT22;8265;52.622;13.296;2023-08-20T04:28:56;21.00;92.70
16313;DHT22;8265;52.622;13.296;2023-08-20T04:34:17;21.00;92.50
16313;DHT22;8265;52.622;13.296;2023-08-20T04:39:38;21.10;92.40
16313;DHT22;8265;52.622;13.296;2023-08-20T04:44:59;21.10;92.30
16313;DHT22;8265;52.622;13.296;2023-08-20T04:50:20;21.10;92.20
16313;DHT22;8265;52.622;13.296;2023-08-20T04:55:41;21.20;91.80
16313;DHT22;8265;52.622;13.296;2023-08-20T05:01:02;21.20;92.10
16313;DHT22;8265;52.622;13.296;2023-08-20T05:06:23;21.30;91.70
16313;DHT22;8265;52.622;13.296;2023-08-20T05:11:44;21.40;91.30
16313;DHT22;8265;52.622;13.296;2023-08-20T05:17:05;21.50;91.10
16313;DHT22;8265;52.622;13.296;2023-08-20T05:22:26;21.90;89.40
16313;DHT22;8265;52.622;13.296;2023-08-20T05:27:47;22.00;88.60
16313;DHT22;8265;52.622;13.296;2023-08-20T05:33:08;22.10;88.30
16313;DHT22;8265;52.622;13.296;2023-08-20T05:38:29;22.20;87.80
16313;DHT22;8265;52.622;13.296;2023-08-20T05:43:50;22.30;87.30
16313;DHT22;8265;52.622;13.296;2023-08-20T05:49:12;22.50;86.50
16313;DHT22;8265;52.622;13.296;2023-08-20T05:54:32;22.60;85.90
16313;DHT22;8265;52.622;13.296;2023-08-20T05:59:53;22.60;85.90
16313;DHT22;8265;52.622;13.296;2023-08-20T06:05:14;22.60;85.60
16313;DHT22;8265;52.622;13.296;2023-08-20T06:10:35;22.40;86.30
16313;DHT22;8265;52.622;13.296;2023-08-20T06:15:56;22.20;87.20
16313;DHT22;8265;52.622;13.296;2023-08-20T06:21:17;22.60;85.90
16313;DHT22;8265;52.622;13.296;2023-08-20T06:26:38;22.50;85.50
16313;DHT22;8265;52.622;13.296;2023-08-20T06:31:58;22.40;85.50
16313;DHT22;8265;52.622;13.296;2023-08-20T06:37:19;22.60;84.60
16313;DHT22;8265;52.622;13.296;2023-08-20T06:42:40;22.80;84.00
16313;DHT22;8265;52.622;13.296;2023-08-20T06:48:01;22.60;84.10
16313;DHT22;8265;52.622;13.296;2023-08-20T06:53:22;22.40;84.70
16313;DHT22;8265;52.622;13.296;2023-08-20T06:58:43;22.60;83.70
16313;DHT22;8265;52.622;13.296;2023-08-20T07:04:05;22.60;84.20
16313;DHT22;8265;52.622;13.296;2023-08-20T07:09:25;22.50;83.90
16313;DHT22;8265;52.622;13.296;2023-08-20T07:14:46;22.20;84.50
16313;DHT22;8265;52.622;13.296;2023-08-20T07:20:07;22.20;84.60
16313;DHT22;8265;52.622;13.296;2023-08-20T07:25:28;22.20;84.60
16313;DHT22;8265;52.622;13.296;2023-08-20T07:30:49;22.00;84.40
16313;DHT22;8265;52.622;13.296;2023-08-20T07:36:10;22.00;84.80
16313;DHT22;8265;52.622;13.296;2023-08-20T07:41:31;22.20;83.70
16313;DHT22;8265;52.622;13.296;2023-08-20T07:46:52;22.30;83.60
16313;DHT22;8265;52.622;13.296;2023-08-20T07:52:13;22.60;82.10
16313;DHT22;8265;52.622;13.296;2023-08-20T07:57:34;22.60;81.90
16313;DHT22;8265;52.622;13.296;2023-08-20T08:02:55;22.70;80.90
16313;DHT22;8265;52.622;13.296;2023-08-20T08:08:16;23.10;79.20
16313;DHT22;8265;52.622;13.296;2023-08-20T08:13:37;23.30;78.40
16313;DHT22;8265;52.622;13.296;2023-08-20T08:18:58;23.30;79.00
16313;DHT22;8265;52.622;13.296;2023-08-20T08:24:19;23.50;78.00
16313;DHT22;8265;52.622;13.296;2023-08-20T08:29:40;23.60;75.90
16313;DHT22;8265;52.622;13.296;2023-08-20T08:35:01;23.70;75.20
16313;DHT22;8265;52.622;13.296;2023-08-20T08:40:22;24.00;75.00
16313;DHT22;8265;52.622;13.296;2023-08-20T08:45:46;24.00;72.20
16313;DHT22;8265;52.622;13.296;2023-08-20T08:51:04;24.00;72.90
16313;DHT22;8265;52.622;13.296;2023-08-20T08:56:25;23.90;72.10
16313;DHT22;8265;52.622;13.296;2023-08-20T09:01:46;23.80;72.50
16313;DHT22;8265;52.622;13.296;2023-08-20T09:07:13;24.20;70.80
16313;DHT22;8265;52.622;13.296;2023-08-20T09:12:28;24.20;70.40
16313;DHT22;8265;52.622;13.296;2023-08-20T09:17:49;24.40;69.70
16313;DHT22;8265;52.622;13.296;2023-08-20T09:23:13;24.20;71.60
16313;DHT22;8265;52.622;13.296;2023-08-20T09:28:44;24.40;70.20
16313;DHT22;8265;52.622;13.296;2023-08-20T09:33:52;24.40;69.80
16313;DHT22;8265;52.622;13.296;2023-08-20T09:39:13;24.60;68.00
16313;DHT22;8265;52.622;13.296;2023-08-20T09:44:35;24.80;67.20
16313;DHT22;8265;52.622;13.296;2023-08-20T09:49:55;24.90;68.00
16313;DHT22;8265;52.622;13.296;2023-08-20T09:55:16;25.00;64.80
16313;DHT22;8265;52.622;13.296;2023-08-20T10:00:37;25.00;64.40
16313;DHT22;8265;52.622;13.296;2023-08-20T10:05:58;25.30;64.20
16313;DHT22;8265;52.622;13.296;2023-08-20T10:11:19;25.40;63.10
16313;DHT22;8265;52.622;13.296;2023-08-20T10:16:40;25.40;63.60
16313;DHT22;8265;52.622;13.296;2023-08-20T10:22:01;25.50;63.70
16313;DHT22;8265;52.622;13.296;2023-08-20T10:27:28;25.80;63.40
16313;DHT22;8265;52.622;13.296;2023-08-20T10:32:47;25.60;62.40
16313;DHT22;8265;52.622;13.296;2023-08-20T10:38:07;25.70;60.10
16313;DHT22;8265;52.622;13.296;2023-08-20T10:43:35;25.90;60.80
16313;DHT22;8265;52.622;13.296;2023-08-20T10:48:53;26.00;60.70
16313;DHT22;8265;52.622;13.296;2023-08-20T10:54:07;26.00;60.70
16313;DHT22;8265;52.622;13.296;2023-08-20T10:59:29;26.20;59.50
16313;DHT22;8265;52.622;13.296;2023-08-20T11:04:49;26.40;59.90
16313;DHT22;8265;52.622;13.296;2023-08-20T11:10:10;26.90;61.40
16313;DHT22;8265;52.622;13.296;2023-08-20T11:15:31;26.90;57.50
16313;DHT22;8265;52.622;13.296;2023-08-20T11:20:52;26.80;59.20
16313;DHT22;8265;52.622;13.296;2023-08-20T11:26:13;27.00;57.90
16313;DHT22;8265;52.622;13.296;2023-08-20T11:31:34;27.00;57.00
16313;DHT22;8265;52.622;13.296;2023-08-20T11:36:55;27.00;56.90
16313;DHT22;8265;52.622;13.296;2023-08-20T11:42:16;27.10;56.50
16313;DHT22;8265;52.622;13.296;2023-08-20T11:47:40;27.30;57.80
16313;DHT22;8265;52.622;13.296;2023-08-20T11:52:58;27.50;55.90
16313;DHT22;8265;52.622;13.296;2023-08-20T11:58:19;27.70;56.10
16313;DHT22;8265;52.622;13.296;2023-08-20T12:03:39;27.80;55.50
16313;DHT22;8265;52.622;13.296;2023-08-20T12:09:01;27.70;55.40
16313;DHT22;8265;52.622;13.296;2023-08-20T12:14:22;27.80;54.20
16313;DHT22;8265;52.622;13.296;2023-08-20T12:19:42;27.90;53.30
16313;DHT22;8265;52.622;13.296;2023-08-20T12:25:04;28.30;51.20
16313;DHT22;8265;52.622;13.296;2023-08-20T12:30:24;28.30;49.10
16313;DHT22;8265;52.622;13.296;2023-08-20T12:35:45;28.10;48.80
16313;DHT22;8265;52.622;13.296;2023-08-20T12:41:06;28.30;48.20
16313;DHT22;8265;52.622;13.296;2023-08-20T12:46:27;28.30;48.50
16313;DHT22;8265;52.622;13.296;2023-08-20T12:51:48;28.60;50.70
16313;DHT22;8265;52.622;13.296;2023-08-20T12:57:09;28.50;46.60
16313;DHT22;8265;52.622;13.296;2023-08-20T13:02:30;28.70;44.50
16313;DHT22;8265;52.622;13.296;2023-08-20T13:07:52;28.90;42.50
16313;DHT22;8265;52.622;13.296;2023-08-20T13:13:12;28.80;43.60
16313;DHT22;8265;52.622;13.296;2023-08-20T13:18:33;28.80;43.10
16313;DHT22;8265;52.622;13.296;2023-08-20T13:23:54;28.70;43.10
16313;DHT22;8265;52.622;13.296;2023-08-20T13:29:15;29.20;42.40
16313;DHT22;8265;52.622;13.296;2023-08-20T13:34:36;29.30;43.00
16313;DHT22;8265;52.622;13.296;2023-08-20T13:39:57;29.40;43.10
16313;DHT22;8265;52.622;13.296;2023-08-20T13:45:18;29.30;43.20
16313;DHT22;8265;52.622;13.296;2023-08-20T13:50:39;29.30;43.60
16313;DHT22;8265;52.622;13.296;2023-08-20T13:56:00;29.60;42.90
16313;DHT22;8265;52.622;13.296;2023-08-20T14:01:22;29.40;42.90
16313;DHT22;8265;52.622;13.296;2023-08-20T14:06:42;29.20;43.40
16313;DHT22;8265;52.622;13.296;2023-08-20T14:12:03;28.90;43.50
16313;DHT22;8265;52.622;13.296;2023-08-20T14:17:24;29.00;45.90
16313;DHT22;8265;52.622;13.296;2023-08-20T14:22:45;29.70;45.70
16313;DHT22;8265;52.622;13.296;2023-08-20T14:28:07;30.00;43.70
16313;DHT22;8265;52.622;13.296;2023-08-20T14:33:27;30.60;41.40
16313;DHT22;8265;52.622;13.296;2023-08-20T14:38:48;29.70;41.20
16313;DHT22;8265;52.622;13.296;2023-08-20T14:44:09;29.70;42.70
16313;DHT22;8265;52.622;13.296;2023-08-20T14:49:30;29.90;44.60
16313;DHT22;8265;52.622;13.296;2023-08-20T14:54:51;30.10;43.80
16313;DHT22;8265;52.622;13.296;2023-08-20T15:00:13;29.80;44.20
16313;DHT22;8265;52.622;13.296;2023-08-20T15:05:33;29.40;44.10
16313;DHT22;8265;52.622;13.296;2023-08-20T15:10:57;29.60;45.40
16313;DHT22;8265;52.622;13.296;2023-08-20T15:16:15;30.60;42.90
16313;DHT22;8265;52.622;13.296;2023-08-20T15:21:36;31.00;42.30
16313;DHT22;8265;52.622;13.296;2023-08-20T15:26:57;31.10;40.00
16313;DHT22;8265;52.622;13.296;2023-08-20T15:32:18;31.20;41.50
16313;DHT22;8265;52.622;13.296;2023-08-20T15:37:39;30.80;40.60
16313;DHT22;8265;52.622;13.296;2023-08-20T15:43:00;30.80;44.40
16313;DHT22;8265;52.622;13.296;2023-08-20T15:48:21;30.00;42.60
16313;DHT22;8265;52.622;13.296;2023-08-20T15:53:42;30.10;43.20
16313;DHT22;8265;52.622;13.296;2023-08-20T15:59:03;30.00;45.50
16313;DHT22;8265;52.622;13.296;2023-08-20T16:04:24;30.30;45.00
16313;DHT22;8265;52.622;13.296;2023-08-20T16:09:45;30.60;41.40
16313;DHT22;8265;52.622;13.296;2023-08-20T16:15:06;30.30;42.40
16313;DHT22;8265;52.622;13.296;2023-08-20T16:20:27;29.80;44.70
16313;DHT22;8265;52.622;13.296;2023-08-20T16:25:48;29.40;44.40
16313;DHT22;8265;52.622;13.296;2023-08-20T16:31:09;29.30;44.20
16313;DHT22;8265;52.622;13.296;2023-08-20T16:36:30;28.90;43.90
16313;DHT22;8265;52.622;13.296;2023-08-20T16:41:51;28.90;47.00
16313;DHT22;8265;52.622;13.296;2023-08-20T16:47:12;28.50;46.20
16313;DHT22;8265;52.622;13.296;2023-08-20T16:52:33;27.90;48.90
16313;DHT22;8265;52.622;13.296;2023-08-20T16:57:54;27.70;57.80
16313;DHT22;8265;52.622;13.296;2023-08-20T17:03:15;27.60;48.50
16313;DHT22;8265;52.622;13.296;2023-08-20T17:08:36;27.40;50.10
16313;DHT22;8265;52.622;13.296;2023-08-20T17:13:57;27.20;52.30
16313;DHT22;8265;52.622;13.296;2023-08-20T17:19:18;26.90;52.90
16313;DHT22;8265;52.622;13.296;2023-08-20T17:24:39;26.40;53.40
16313;DHT22;8265;52.622;13.296;2023-08-20T17:30:00;26.00;59.20
16313;DHT22;8265;52.622;13.296;2023-08-20T17:35:21;25.90;57.80
16313;DHT22;8265;52.622;13.296;2023-08-20T17:40:42;25.60;60.40
16313;DHT22;8265;52.622;13.296;2023-08-20T17:46:03;25.00;62.70
16313;DHT22;8265;52.622;13.296;2023-08-20T17:51:24;24.60;65.60
16313;DHT22;8265;52.622;13.296;2023-08-20T17:56:44;24.20;65.90
16313;DHT22;8265;52.622;13.296;2023-08-20T18:02:05;23.80;66.00
16313;DHT22;8265;52.622;13.296;2023-08-20T18:07:26;23.70;66.80
16313;DHT22;8265;52.622;13.296;2023-08-20T18:12:47;23.50;67.80
16313;DHT22;8265;52.622;13.296;2023-08-20T18:18:08;23.20;68.50
16313;DHT22;8265;52.622;13.296;2023-08-20T18:23:29;23.00;70.40
16313;DHT22;8265;52.622;13.296;2023-08-20T18:28:50;22.80;70.80
16313;DHT22;8265;52.622;13.296;2023-08-20T18:34:11;22.60;72.70
16313;DHT22;8265;52.622;13.296;2023-08-20T18:39:32;22.40;72.10
16313;DHT22;8265;52.622;13.296;2023-08-20T18:44:53;22.20;71.80
16313;DHT22;8265;52.622;13.296;2023-08-20T18:50:14;22.10;72.00
16313;DHT22;8265;52.622;13.296;2023-08-20T18:55:35;22.00;74.10
16313;DHT22;8265;52.622;13.296;2023-08-20T19:00:56;21.90;74.10
16313;DHT22;8265;52.622;13.296;2023-08-20T19:06:17;22.00;73.00
16313;DHT22;8265;52.622;13.296;2023-08-20T19:11:38;22.00;74.30
16313;DHT22;8265;52.622;13.296;2023-08-20T19:16:59;21.90;74.50
16313;DHT22;8265;52.622;13.296;2023-08-20T19:22:20;21.90;74.10
16313;DHT22;8265;52.622;13.296;2023-08-20T19:27:41;21.90;72.90
16313;DHT22;8265;52.622;13.296;2023-08-20T19:33:02;21.90;73.70
16313;DHT22;8265;52.622;13.296;2023-08-20T19:38:23;21.90;74.50
16313;DHT22;8265;52.622;13.296;2023-08-20T19:43:44;21.70;75.00
16313;DHT22;8265;52.622;13.296;2023-08-20T19:49:05;21.60;75.00
16313;DHT22;8265;52.622;13.296;2023-08-20T19:54:26;21.40;75.10
16313;DHT22;8265;52.622;13.296;2023-08-20T19:59:47;21.30;75.50
16313;DHT22;8265;52.622;13.296;2023-08-20T20:05:09;21.10;75.70
16313;DHT22;8265;52.622;13.296;2023-08-20T20:10:29;21.10;75.10
16313;DHT22;8265;52.622;13.296;2023-08-20T20:15:50;21.00;75.90
16313;DHT22;8265;52.622;13.296;2023-08-20T20:21:11;20.80;75.80
16313;DHT22;8265;52.622;13.296;2023-08-20T20:26:32;20.60;76.80
16313;DHT22;8265;52.622;13.296;2023-08-20T20:31:53;20.50;77.20
16313;DHT22;8265;52.622;13.296;2023-08-20T20:37:14;20.30;78.50
16313;DHT22;8265;52.622;13.296;2023-08-20T20:42:35;20.40;78.10
16313;DHT22;8265;52.622;13.296;2023-08-20T20:47:56;20.30;78.40
16313;DHT22;8265;52.622;13.296;2023-08-20T20:53:17;20.50;78.30
16313;DHT22;8265;52.622;13.296;2023-08-20T20:58:38;20.50;78.20
16313;DHT22;8265;52.622;13.296;2023-08-20T21:03:59;20.50;78.10
16313;DHT22;8265;52.622;13.296;2023-08-20T21:09:20;20.30;78.20
16313;DHT22;8265;52.622;13.296;2023-08-20T21:14:41;20.20;77.30
16313;DHT22;8265;52.622;13.296;2023-08-20T21:20:02;20.30;77.00
16313;DHT22;8265;52.622;13.296;2023-08-20T21:25:23;20.30;76.50
16313;DHT22;8265;52.622;13.296;2023-08-20T21:30:44;20.30;76.40
16313;DHT22;8265;52.622;13.296;2023-08-20T21:36:05;20.10;77.10
16313;DHT22;8265;52.622;13.296;2023-08-20T21:41:26;20.00;77.60
16313;DHT22;8265;52.622;13.296;2023-08-20T21:46:47;20.00;78.40
16313;DHT22;8265;52.622;13.296;2023-08-20T21:52:08;19.90;79.00
16313;DHT22;8265;52.622;13.296;2023-08-20T21:57:29;19.70;79.80
16313;DHT22;8265;52.622;13.296;2023-08-20T22:02:50;19.70;80.40
16313;DHT22;8265;52.622;13.296;2023-08-20T22:08:11;19.70;81.10
16313;DHT22;8265;52.622;13.296;2023-08-20T22:13:32;19.50;81.30
16313;DHT22;8265;52.622;13.296;2023-08-20T22:18:53;19.50;82.10
16313;DHT22;8265;52.622;13.296;2023-08-20T22:24:14;19.40;82.30
16313;DHT22;8265;52.622;13.296;2023-08-20T22:29:35;19.30;82.50
16313;DHT22;8265;52.622;13.296;2023-08-20T22:34:56;19.30;82.90
16313;DHT22;8265;52.622;13.296;2023-08-20T22:40:17;19.20;83.50
16313;DHT22;8265;52.622;13.296;2023-08-20T22:45:38;18.90;84.50
16313;DHT22;8265;52.622;13.296;2023-08-20T22:50:59;18.80;85.40
16313;DHT22;8265;52.622;13.296;2023-08-20T22:56:20;18.80;86.00
16313;DHT22;8265;52.622;13.296;2023-08-20T23:01:41;18.70;87.00
16313;DHT22;8265;52.622;13.296;2023-08-20T23:07:02;18.70;87.50
16313;DHT22;8265;52.622;13.296;2023-08-20T23:12:23;18.60;88.20
16313;DHT22;8265;52.622;13.296;2023-08-20T23:17:44;18.50;88.30
16313;DHT22;8265;52.622;13.296;2023-08-20T23:23:05;18.50;89.20
16313;DHT22;8265;52.622;13.296;2023-08-20T23:28:26;18.60;89.30
16313;DHT22;8265;52.622;13.296;2023-08-20T23:33:47;18.60;89.70
16313;DHT22;8265;52.622;13.296;2023-08-20T23:39:08;18.60;90.00
16313;DHT22;8265;52.622;13.296;2023-08-20T23:44:29;18.50;90.50
16313;DHT22;8265;52.622;13.296;2023-08-20T23:49:50;18.40;91.30
16313;DHT22;8265;52.622;13.296;2023-08-20T23:55:11;18.30;91.60
